createdAt,value
2019-05-28T00:01:39.321Z,7.05
2019-05-28T00:04:26.909Z,7.72
2019-05-28T00:07:14.477Z,7.85
2019-05-28T00:10:01.512Z,7.17
2019-05-28T00:12:48.997Z,6.97
2019-05-28T00:15:36.586Z,7.10
2019-05-28T00:18:24.167Z,6.65
2019-05-28T00:21:11.391Z,6.90
2019-05-28T00:23:58.344Z,6.55
2019-05-28T00:26:45.552Z,6.78
2019-05-28T00:29:32.482Z,6.58
2019-05-28T00:35:06.769Z,6.45
2019-05-28T00:37:53.710Z,6.53
2019-05-28T00:40:41.145Z,7.10
2019-05-28T00:43:28.030Z,7.20
2019-05-28T00:49:01.470Z,6.62
2019-05-28T00:51:48.448Z,6.95
2019-05-28T00:54:35.703Z,6.62
2019-05-28T00:57:23.694Z,7.17
2019-05-28T01:00:11.347Z,6.85
2019-05-28T01:02:58.533Z,7.45
2019-05-28T01:05:46.005Z,7.70
2019-05-28T01:08:33.269Z,7.83
2019-05-28T01:11:20.447Z,7.33
2019-05-28T01:14:07.630Z,7.60
2019-05-28T01:16:54.986Z,7.87
2019-05-28T01:19:42.264Z,7.65
2019-05-28T01:22:29.584Z,7.83
2019-05-28T01:25:16.930Z,7.42
2019-05-28T01:28:04.478Z,7.45
2019-05-28T01:30:57.661Z,7.58
2019-05-28T01:33:40.804Z,7.58
2019-05-28T01:36:28.124Z,8.35
2019-05-28T01:39:15.190Z,7.97
2019-05-28T01:42:02.299Z,7.47
2019-05-28T01:44:49.799Z,7.83
2019-05-28T01:47:37.520Z,8.18
2019-05-28T01:50:25.047Z,8.00
2019-05-28T01:53:11.984Z,8.15
2019-05-28T01:55:58.992Z,7.22
2019-05-28T01:58:46.189Z,7.08
2019-05-28T02:01:33.175Z,7.72
2019-05-28T02:04:20.597Z,7.33
2019-05-28T02:07:08.014Z,7.45
2019-05-28T02:09:55.404Z,8.00
2019-05-28T02:12:42.949Z,8.13
2019-05-28T02:15:30.187Z,8.53
2019-05-28T02:18:17.792Z,8.15
2019-05-28T02:21:05.219Z,9.05
2019-05-28T02:23:52.714Z,8.90
2019-05-28T02:26:40.382Z,9.88
2019-05-28T02:29:27.647Z,8.40
2019-05-28T02:32:14.689Z,8.63
2019-05-28T02:35:01.847Z,9.85
2019-05-28T02:37:48.982Z,9.90
2019-05-28T02:40:36.507Z,10.08
2019-05-28T02:43:24.082Z,9.50
2019-05-28T02:46:11.715Z,10.45
2019-05-28T02:48:58.689Z,10.40
2019-05-28T02:54:32.942Z,9.98
2019-05-28T02:57:22.022Z,9.50
2019-05-28T03:00:12.182Z,9.13
2019-05-28T03:03:01.935Z,9.65
2019-05-28T03:05:52.041Z,11.93
2019-05-28T03:08:38.986Z,13.03
2019-05-28T03:11:26.229Z,12.70
2019-05-28T03:14:12.899Z,12.63
2019-05-28T03:17:03.496Z,11.65
2019-05-28T03:19:51.223Z,10.70
2019-05-28T03:22:39.827Z,12.15
2019-05-28T03:25:27.559Z,13.65
2019-05-28T03:28:15.195Z,12.93
2019-05-28T03:31:02.447Z,13.48
2019-05-28T03:33:50.216Z,14.30
2019-05-28T03:36:38.004Z,14.30
2019-05-28T03:39:26.802Z,14.00
2019-05-28T03:42:13.845Z,13.58
2019-05-28T03:45:01.169Z,13.98
2019-05-28T03:47:48.708Z,13.40
2019-05-28T03:50:36.524Z,14.30
2019-05-28T03:53:24.091Z,13.25
2019-05-28T03:56:11.078Z,12.73
2019-05-28T03:58:58.521Z,13.10
2019-05-28T04:01:45.955Z,12.55
2019-05-28T04:04:33.353Z,12.60
2019-05-28T04:07:20.703Z,11.90
2019-05-28T04:10:07.824Z,12.47
2019-05-28T04:12:55.299Z,12.03
2019-05-28T04:15:42.801Z,11.53
2019-05-28T04:18:30.040Z,10.93
2019-05-28T04:21:17.328Z,11.73
2019-05-28T04:24:05.019Z,10.85
2019-05-28T04:26:52.142Z,9.90
2019-05-28T04:29:39.443Z,10.30
2019-05-28T04:32:40.074Z,9.18
2019-05-28T04:35:16.290Z,9.30
2019-05-28T04:38:03.897Z,10.30
2019-05-28T04:40:51.393Z,9.78
2019-05-28T04:43:39.144Z,9.83
2019-05-28T04:46:26.136Z,9.18
2019-05-28T04:49:13.716Z,9.60
2019-05-28T04:52:00.931Z,8.95
2019-05-28T04:55:09.283Z,9.73
2019-05-28T04:57:56.731Z,9.63
2019-05-28T05:00:44.244Z,10.03
2019-05-28T05:03:31.391Z,10.43
2019-05-28T05:06:19.139Z,10.50
2019-05-28T05:09:07.228Z,12.33
2019-05-28T05:11:54.424Z,12.90
2019-05-28T05:17:27.631Z,14.73
2019-05-28T05:20:15.422Z,15.15
2019-05-28T05:23:02.570Z,15.38
2019-05-28T05:25:50.193Z,15.63
2019-05-28T05:28:37.770Z,16.35
2019-05-28T05:31:25.229Z,15.88
2019-05-28T05:34:12.769Z,16.42
2019-05-28T05:37:00.392Z,17.05
2019-05-28T05:42:35.267Z,17.00
2019-05-28T05:45:22.688Z,18.50
2019-05-28T05:48:09.835Z,17.95
2019-05-28T05:50:57.107Z,18.87
2019-05-28T05:53:44.264Z,18.50
2019-05-28T05:56:31.709Z,18.32
2019-05-28T05:59:19.113Z,19.20
2019-05-28T06:02:06.149Z,20.15
2019-05-28T06:04:53.509Z,18.80
2019-05-28T06:07:40.508Z,18.87
2019-05-28T06:10:27.704Z,19.32
2019-05-28T06:13:15.185Z,20.08
2019-05-28T06:16:02.449Z,19.55
2019-05-28T06:18:49.679Z,19.42
2019-05-28T06:21:37.085Z,19.23
2019-05-28T06:24:24.107Z,20.27
2019-05-28T06:27:11.496Z,19.98
2019-05-28T06:29:58.694Z,19.60
2019-05-28T06:32:45.996Z,19.45
2019-05-28T06:35:33.109Z,17.52
2019-05-28T06:38:20.586Z,17.75
2019-05-28T06:41:07.387Z,17.92
2019-05-28T06:43:54.446Z,17.05
2019-05-28T06:46:41.646Z,15.20
2019-05-28T06:49:28.790Z,16.05
2019-05-28T06:52:16.103Z,17.15
2019-05-28T06:55:03.124Z,15.70
2019-05-28T06:57:50.018Z,14.70
2019-05-28T07:00:37.145Z,15.28
2019-05-28T07:03:24.469Z,16.25
2019-05-28T07:06:11.688Z,15.88
2019-05-28T07:08:59.090Z,17.23
2019-05-28T07:11:46.561Z,17.17
2019-05-28T07:14:33.738Z,16.75
2019-05-28T07:17:21.138Z,15.43
2019-05-28T07:20:09.343Z,14.53
2019-05-28T07:22:56.936Z,13.38
2019-05-28T07:25:44.604Z,14.63
2019-05-28T07:28:32.204Z,14.13
2019-05-28T07:31:19.345Z,15.00
2019-05-28T07:34:07.141Z,14.80
2019-05-28T07:36:54.362Z,15.90
2019-05-28T07:39:41.849Z,19.27
2019-05-28T07:42:32.610Z,15.38
2019-05-28T07:45:18.065Z,15.58
2019-05-28T07:48:05.416Z,14.03
2019-05-28T07:50:53.164Z,14.05
2019-05-28T07:53:40.843Z,14.40
2019-05-28T07:56:28.272Z,14.83
2019-05-28T07:59:15.830Z,15.18
2019-05-28T08:02:03.564Z,16.23
2019-05-28T08:04:50.873Z,16.50
2019-05-28T08:07:38.371Z,19.35
2019-05-28T08:10:29.244Z,15.30
2019-05-28T08:13:14.929Z,14.30
2019-05-28T08:16:17.500Z,13.20
2019-05-28T08:18:51.336Z,14.07
2019-05-28T08:21:38.880Z,14.10
2019-05-28T08:24:26.565Z,12.53
2019-05-28T08:27:13.991Z,9.88
2019-05-28T08:30:01.471Z,10.88
2019-05-28T08:32:48.797Z,11.50
2019-05-28T08:35:35.701Z,9.83
2019-05-28T08:38:23.242Z,8.85
2019-05-28T08:41:29.961Z,9.25
2019-05-28T08:44:17.660Z,8.83
2019-05-28T08:47:05.305Z,8.65
2019-05-28T08:49:52.589Z,10.08
2019-05-28T08:52:39.729Z,7.95
2019-05-28T08:55:26.588Z,7.45
2019-05-28T08:58:13.980Z,6.53
2019-05-28T09:01:01.699Z,6.33
2019-05-28T09:03:49.335Z,6.05
2019-05-28T09:06:36.768Z,5.95
2019-05-28T09:09:24.711Z,7.95
2019-05-28T09:12:11.655Z,8.93
2019-05-28T09:14:59.115Z,4.40
2019-05-28T09:17:46.584Z,4.40
2019-05-28T09:20:34.073Z,5.03
2019-05-28T09:23:21.588Z,5.70
2019-05-28T09:26:08.713Z,6.58
2019-05-28T09:28:56.124Z,6.28
2019-05-28T09:31:43.527Z,6.60
2019-05-28T09:34:31.003Z,5.97
2019-05-28T09:37:18.540Z,6.45
2019-05-28T09:40:13.178Z,5.80
2019-05-28T09:43:00.584Z,6.03
2019-05-28T09:45:47.809Z,6.47
2019-05-28T09:48:35.173Z,6.53
2019-05-28T09:51:22.383Z,6.05
2019-05-28T09:56:55.281Z,5.45
2019-05-28T09:59:42.491Z,6.08
2019-05-28T10:02:29.430Z,6.20
2019-05-28T10:05:17.024Z,6.03
2019-05-28T10:08:04.468Z,6.12
2019-05-28T10:10:51.760Z,5.95
2019-05-28T10:13:41.520Z,7.50
2019-05-28T10:16:27.912Z,6.67
2019-05-28T10:19:15.428Z,7.53
2019-05-28T10:22:02.682Z,6.95
2019-05-28T10:24:49.867Z,5.80
2019-05-28T10:27:37.788Z,5.40
2019-05-28T10:30:25.878Z,5.97
2019-05-28T10:33:12.999Z,6.17
2019-05-28T10:36:00.710Z,6.05
2019-05-28T10:38:47.887Z,6.03
2019-05-28T10:41:35.211Z,6.22
2019-05-28T10:44:22.544Z,5.58
2019-05-28T10:47:09.903Z,4.97
2019-05-28T10:49:57.415Z,4.30
2019-05-28T10:52:44.582Z,4.85
2019-05-28T10:55:31.921Z,4.97
2019-05-28T10:58:19.154Z,5.03
2019-05-28T11:01:06.532Z,4.97
2019-05-28T11:03:53.959Z,5.72
2019-05-28T11:06:51.515Z,6.28
2019-05-28T11:09:30.297Z,6.78
2019-05-28T11:12:17.638Z,8.45
2019-05-28T11:15:10.464Z,8.80
2019-05-28T11:17:57.982Z,10.43
2019-05-28T11:20:45.369Z,10.32
2019-05-28T11:23:32.652Z,10.43
2019-05-28T11:26:19.977Z,11.03
2019-05-28T11:29:07.300Z,10.98
2019-05-28T11:31:55.047Z,10.85
2019-05-28T11:34:42.072Z,10.50
2019-05-28T11:37:29.372Z,10.65
2019-05-28T11:40:18.304Z,10.88
2019-05-28T11:43:05.958Z,8.03
2019-05-28T11:45:53.519Z,7.15
2019-05-28T11:48:40.721Z,7.00
2019-05-28T11:51:28.023Z,6.87
2019-05-28T11:54:15.160Z,6.47
2019-05-28T11:57:02.462Z,7.28
2019-05-28T11:59:50.278Z,6.22
2019-05-28T12:02:37.581Z,3.20
2019-05-28T12:05:25.063Z,3.40
2019-05-28T12:08:12.293Z,3.60
2019-05-28T12:10:59.483Z,3.67
2019-05-28T12:13:46.633Z,4.22
2019-05-28T12:16:34.068Z,4.47
2019-05-28T12:19:21.587Z,3.62
2019-05-28T12:22:08.569Z,3.87
2019-05-28T12:24:55.972Z,3.30
2019-05-28T12:27:43.371Z,3.35
2019-05-28T12:30:30.850Z,3.52
2019-05-28T12:33:19.333Z,4.35
2019-05-28T12:36:09.266Z,3.70
2019-05-28T12:38:56.487Z,4.00
2019-05-28T12:41:43.664Z,3.67
2019-05-28T12:44:41.679Z,2.70
2019-05-28T12:47:19.724Z,3.12
2019-05-28T12:50:19.025Z,2.95
2019-05-28T12:52:56.464Z,3.20
2019-05-28T12:55:43.542Z,3.10
2019-05-28T12:58:41.574Z,3.10
2019-05-28T13:01:19.765Z,2.60
2019-05-28T13:04:06.671Z,1.90
2019-05-28T13:06:54.021Z,1.98
2019-05-28T13:09:40.923Z,1.77
2019-05-28T13:12:28.204Z,1.87
2019-05-28T13:15:15.517Z,1.70
2019-05-28T13:18:03.022Z,1.75
2019-05-28T13:20:50.646Z,1.77
2019-05-28T13:23:37.868Z,1.90
2019-05-28T13:26:24.757Z,1.40
2019-05-28T13:29:12.085Z,1.80
2019-05-28T13:31:59.325Z,1.32
2019-05-28T13:34:46.665Z,1.22
2019-05-28T13:37:35.440Z,1.25
2019-05-28T13:40:23.585Z,1.17
2019-05-28T13:43:10.634Z,1.35
2019-05-28T13:45:58.278Z,1.10
2019-05-28T13:48:45.802Z,1.15
2019-05-28T13:51:33.051Z,0.95
2019-05-28T13:54:20.481Z,1.00
2019-05-28T13:57:07.636Z,0.80
2019-05-28T13:59:58.379Z,0.95
2019-05-28T14:02:46.122Z,1.30
2019-05-28T14:05:33.454Z,1.77
2019-05-28T14:08:21.114Z,1.30
2019-05-28T14:11:08.453Z,1.40
2019-05-28T14:13:55.592Z,1.30
2019-05-28T14:16:42.848Z,1.27
2019-05-28T14:19:30.131Z,1.10
2019-05-28T14:22:33.059Z,1.25
2019-05-28T14:25:10.751Z,1.20
2019-05-28T14:27:57.990Z,1.02
2019-05-28T14:30:59.509Z,0.90
2019-05-28T14:33:33.786Z,0.98
2019-05-28T14:36:21.087Z,1.00
2019-05-28T14:39:09.298Z,0.85
2019-05-28T14:41:56.741Z,0.82
2019-05-28T14:44:44.321Z,0.88
2019-05-28T14:47:31.754Z,1.02
2019-05-28T14:50:19.204Z,1.20
2019-05-28T14:53:09.670Z,0.90
2019-05-28T14:55:57.317Z,0.90
2019-05-28T14:58:44.881Z,0.93
2019-05-28T15:01:31.853Z,0.90
2019-05-28T15:04:18.788Z,1.15
2019-05-28T15:07:05.820Z,1.05
2019-05-28T15:09:53.075Z,0.82
2019-05-28T15:12:40.603Z,1.30
2019-05-28T15:15:35.867Z,0.90
2019-05-28T15:18:16.237Z,0.98
2019-05-28T15:21:03.402Z,0.98
2019-05-28T15:23:50.335Z,1.05
2019-05-28T15:26:37.766Z,0.82
2019-05-28T15:29:24.472Z,0.80
2019-05-28T15:32:11.649Z,0.88
2019-05-28T15:34:58.726Z,0.70
2019-05-28T15:37:46.158Z,0.78
2019-05-28T15:40:33.518Z,0.90
2019-05-28T15:43:20.988Z,1.10
2019-05-28T15:46:08.910Z,0.70
2019-05-28T15:48:56.289Z,0.80
2019-05-28T15:51:43.586Z,1.00
2019-05-28T15:54:31.012Z,0.80
2019-05-28T15:57:18.577Z,0.75
2019-05-28T16:00:07.499Z,0.80
2019-05-28T16:02:54.996Z,0.70
2019-05-28T16:05:42.734Z,0.85
2019-05-28T16:08:29.930Z,0.90
2019-05-28T16:11:17.198Z,0.95
2019-05-28T16:14:05.173Z,0.70
2019-05-28T16:16:52.184Z,0.85
2019-05-28T16:19:39.799Z,0.82
2019-05-28T16:22:27.444Z,0.93
2019-05-28T16:25:15.359Z,0.80
2019-05-28T16:28:02.873Z,0.90
2019-05-28T16:30:50.283Z,0.80
2019-05-28T16:33:37.735Z,0.80
2019-05-28T16:36:24.769Z,0.90
2019-05-28T16:39:12.303Z,0.70
2019-05-28T16:41:59.597Z,0.70
2019-05-28T16:44:46.820Z,0.93
2019-05-28T16:47:34.081Z,0.68
2019-05-28T16:50:21.363Z,0.70
2019-05-28T16:53:08.631Z,0.90
2019-05-28T16:55:55.992Z,1.00
2019-05-28T16:58:43.508Z,0.90
2019-05-28T17:01:30.785Z,1.20
2019-05-28T17:04:18.073Z,0.90
2019-05-28T17:07:05.332Z,0.93
2019-05-28T17:09:52.764Z,0.95
2019-05-28T17:12:39.881Z,1.05
2019-05-28T17:15:27.711Z,1.02
2019-05-28T17:18:15.111Z,0.80
2019-05-28T17:21:02.100Z,1.17
2019-05-28T17:23:49.841Z,1.17
2019-05-28T17:26:37.188Z,1.30
2019-05-28T17:29:24.474Z,1.10
2019-05-28T17:32:11.761Z,0.90
2019-05-28T17:34:59.568Z,1.02
2019-05-28T17:37:46.998Z,0.80
2019-05-28T17:40:47.456Z,0.90
2019-05-28T17:43:22.729Z,0.90
2019-05-28T17:46:09.846Z,0.90
2019-05-28T17:48:56.776Z,0.72
2019-05-28T17:51:43.861Z,1.07
2019-05-28T17:54:31.471Z,0.70
2019-05-28T17:57:18.849Z,0.98
2019-05-28T18:00:06.780Z,0.88
2019-05-28T18:02:54.036Z,1.10
2019-05-28T18:05:41.183Z,0.85
2019-05-28T18:08:29.455Z,1.10
2019-05-28T18:11:17.210Z,0.82
2019-05-28T18:14:04.732Z,0.80
2019-05-28T18:16:51.693Z,0.82
2019-05-28T18:19:38.797Z,0.80
2019-05-28T18:22:26.012Z,0.82
2019-05-28T18:25:13.143Z,0.85
2019-05-28T18:28:00.370Z,0.70
2019-05-28T18:30:47.651Z,0.78
2019-05-28T18:33:34.772Z,0.70
2019-05-28T18:36:21.774Z,0.98
2019-05-28T18:39:08.949Z,0.82
2019-05-28T18:41:56.344Z,1.12
2019-05-28T18:44:43.290Z,0.90
2019-05-28T18:47:30.335Z,0.90
2019-05-28T18:50:18.331Z,1.00
2019-05-28T18:53:05.497Z,1.10
2019-05-28T18:55:52.627Z,1.10
2019-05-28T18:58:40.803Z,1.30
2019-05-28T19:01:27.693Z,1.45
2019-05-28T19:04:14.600Z,1.25
2019-05-28T19:07:01.470Z,1.37
2019-05-28T19:09:48.508Z,1.15
2019-05-28T19:12:35.773Z,1.45
2019-05-28T19:15:22.888Z,1.30
2019-05-28T19:18:10.449Z,1.30
2019-05-28T19:20:58.044Z,1.27
2019-05-28T19:23:45.337Z,2.00
2019-05-28T19:26:32.692Z,1.50
2019-05-28T19:29:20.808Z,2.00
2019-05-28T19:32:08.588Z,1.57
2019-05-28T19:34:56.029Z,1.82
2019-05-28T19:37:43.942Z,2.55
2019-05-28T19:40:40.765Z,2.00
2019-05-28T19:43:29.983Z,1.62
2019-05-28T19:46:16.982Z,1.77
2019-05-28T19:49:04.342Z,2.02
2019-05-28T19:51:52.063Z,1.60
2019-05-28T19:54:39.017Z,1.95
2019-05-28T19:57:26.507Z,2.10
2019-05-28T20:00:13.568Z,2.00
2019-05-28T20:03:00.683Z,2.27
2019-05-28T20:05:48.230Z,1.87
2019-05-28T20:08:35.437Z,2.20
2019-05-28T20:11:22.584Z,2.20
2019-05-28T20:14:10.050Z,2.12
2019-05-28T20:16:57.456Z,2.30
2019-05-28T20:19:45.299Z,2.20
2019-05-28T20:22:32.644Z,2.50
2019-05-28T20:25:22.039Z,2.37
2019-05-28T20:28:09.456Z,2.20
2019-05-28T20:30:56.554Z,2.17
2019-05-28T20:33:43.998Z,2.02
2019-05-28T20:36:31.377Z,2.30
2019-05-28T20:39:18.832Z,2.52
2019-05-28T20:42:06.172Z,1.90
2019-05-28T20:44:55.304Z,1.82
2019-05-28T20:47:42.312Z,1.85
2019-05-28T20:50:29.681Z,2.30
2019-05-28T20:53:16.668Z,2.37
2019-05-28T20:56:04.498Z,2.52
2019-05-28T20:58:53.797Z,2.40
2019-05-28T21:01:41.093Z,2.10
2019-05-28T21:04:28.564Z,2.22
2019-05-28T21:07:16.370Z,2.25
2019-05-28T21:10:05.475Z,1.95
2019-05-28T21:12:52.871Z,2.27
2019-05-28T21:15:39.967Z,2.40
2019-05-28T21:18:27.261Z,2.52
2019-05-28T21:21:14.257Z,2.22
2019-05-28T21:24:01.795Z,2.37
2019-05-28T21:26:49.968Z,2.47
2019-05-28T21:29:37.412Z,2.10
2019-05-28T21:32:24.902Z,2.33
2019-05-28T21:35:12.436Z,2.77
2019-05-28T21:37:59.891Z,2.70
2019-05-28T21:40:47.428Z,2.55
2019-05-28T21:43:35.845Z,2.42
2019-05-28T21:46:24.732Z,3.15
2019-05-28T21:49:12.160Z,2.95
2019-05-28T21:52:00.810Z,2.50
2019-05-28T21:54:48.583Z,2.92
2019-05-28T21:57:36.373Z,3.40
2019-05-28T22:00:39.987Z,3.58
2019-05-28T22:03:27.262Z,3.30
2019-05-28T22:06:14.507Z,3.25
2019-05-28T22:09:02.128Z,3.15
2019-05-28T22:11:50.249Z,3.15
2019-05-28T22:14:37.500Z,3.35
2019-05-28T22:17:24.405Z,3.40
2019-05-28T22:20:11.579Z,3.35
2019-05-28T22:22:58.657Z,3.98
2019-05-28T22:25:45.834Z,3.80
2019-05-28T22:28:33.035Z,3.77
2019-05-28T22:31:20.236Z,4.62
2019-05-28T22:34:07.383Z,3.95
2019-05-28T22:36:54.385Z,4.37
2019-05-28T22:39:41.584Z,4.28
2019-05-28T22:42:28.681Z,4.10
2019-05-28T22:45:15.891Z,3.65
2019-05-28T22:48:06.405Z,3.90
2019-05-28T22:50:52.428Z,4.25
2019-05-28T22:53:40.427Z,3.83
2019-05-28T22:56:27.513Z,3.60
2019-05-28T22:59:14.687Z,4.25
2019-05-28T23:02:02.800Z,4.05
2019-05-28T23:04:49.938Z,3.85
2019-05-28T23:07:37.285Z,4.10
2019-05-28T23:10:24.933Z,4.12
2019-05-28T23:13:12.099Z,3.92
2019-05-28T23:15:59.893Z,4.20
2019-05-28T23:18:47.228Z,3.85
2019-05-28T23:21:34.907Z,4.20
2019-05-28T23:24:22.174Z,3.90
2019-05-28T23:27:09.633Z,4.12
2019-05-28T23:29:57.060Z,4.45
2019-05-28T23:32:44.249Z,4.05
2019-05-28T23:35:31.245Z,4.65
2019-05-28T23:38:18.440Z,4.33
2019-05-28T23:41:07.152Z,5.08
2019-05-28T23:44:01.959Z,4.55
2019-05-28T23:46:43.617Z,4.70
2019-05-28T23:49:31.112Z,4.62
2019-05-28T23:52:18.406Z,4.67
2019-05-28T23:55:07.732Z,4.90
2019-05-28T23:57:55.036Z,4.47
